Time;durP1;ratioP1;P1;durP2;ratioP2;P2;SDS_P1;SDS_P2;PMS_P1;PMS_P2;Temp;Humidity;BMP_temperature;BMP_pressure;BME280_temperature;BME280_humidity;BME280_pressure;Samples;Min_cycle;Max_cycle;Signal;HPM_P1;HPM_P2
2021/12/07 00:00:18;;;;;;;64.85;7.35;;;;;;;;;;5071414;28;20712;-64
2021/12/07 00:02:45;;;;;;;63.45;7.95;;;;;;;;;;5071750;28;20211;-65
2021/12/07 00:05:12;;;;;;;67.38;6.60;;;;;;;;;;5071488;28;20227;-64
2021/12/07 00:07:42;;;;;;;66.75;7.75;;;;;;;;;;5071009;28;20624;-64
2021/12/07 00:10:10;;;;;;;64.13;6.85;;;;;;;;;;5071642;28;20266;-65
2021/12/07 00:12:40;;;;;;;65.63;7.40;;;;;;;;;;5071384;28;20209;-64
2021/12/07 00:15:09;;;;;;;64.28;7.57;;;;;;;;;;5071173;28;20232;-64
2021/12/07 00:17:37;;;;;;;65.13;7.85;;;;;;;;;;5069760;28;20208;-65
2021/12/07 00:20:07;;;;;;;66.47;8.52;;;;;;;;;;5071387;28;20228;-64
2021/12/07 00:22:34;;;;;;;64.00;7.60;;;;;;;;;;5071421;28;20211;-65
2021/12/07 00:25:03;;;;;;;64.72;7.70;;;;;;;;;;5071030;28;20211;-64
2021/12/07 00:27:30;;;;;;;64.18;6.25;;;;;;;;;;5072492;28;20207;-65
2021/12/07 00:29:57;;;;;;;72.43;9.18;;;;;;;;;;5074746;28;20231;-64
2021/12/07 00:32:29;;;;;;;65.30;6.85;;;;;;;;;;5075232;28;20204;-64
2021/12/07 00:35:15;;;;;;;63.03;6.68;;;;;;;;;;5075195;28;20685;-65
2021/12/07 00:37:44;;;;;;;64.00;6.90;;;;;;;;;;5074906;28;20224;-64
2021/12/07 00:40:15;;;;;;;63.97;6.80;;;;;;;;;;5075238;28;20317;-65
2021/12/07 00:42:42;;;;;;;61.63;6.50;;;;;;;;;;5075157;28;20593;-64
2021/12/07 00:45:10;;;;;;;63.53;6.50;;;;;;;;;;5074695;28;20203;-65
2021/12/07 00:47:38;;;;;;;63.13;6.55;;;;;;;;;;5072662;28;20236;-65
2021/12/07 00:50:05;;;;;;;63.55;6.70;;;;;;;;;;5074324;28;20225;-65
2021/12/07 00:52:32;;;;;;;61.97;5.57;;;;;;;;;;5074830;28;20295;-64
2021/12/07 00:54:59;;;;;;;62.50;6.50;;;;;;;;;;5074917;28;20229;-64
2021/12/07 00:57:28;;;;;;;63.33;6.07;;;;;;;;;;5074586;28;20304;-64
2021/12/07 00:59:55;;;;;;;61.45;5.82;;;;;;;;;;5074685;28;20225;-64
2021/12/07 01:02:22;;;;;;;63.80;6.25;;;;;;;;;;5075435;28;20304;-64
2021/12/07 01:04:57;;;;;;;62.38;5.65;;;;;;;;;;5075163;28;20209;-64
2021/12/07 01:07:49;;;;;;;61.95;5.95;;;;;;;;;;5074708;28;20672;-65
2021/12/07 01:26:44;;;;;;;64.45;7.00;;;;;;;;;;5054060;28;20288;-65
2021/12/07 01:29:15;;;;;;;60.17;5.32;;;;;;;;;;5053979;28;20291;-64
2021/12/07 01:31:51;;;;;;;62.95;6.80;;;;;;;;;;5053715;28;20624;-65
2021/12/07 01:34:40;;;;;;;62.05;6.25;;;;;;;;;;5054306;28;20264;-65
2021/12/07 01:37:24;;;;;;;61.92;6.20;;;;;;;;;;5053658;28;20567;-64
2021/12/07 01:43:13;;;;;;;61.50;6.65;;;;;;;;;;5051994;28;20208;-64
2021/12/07 01:46:02;;;;;;;61.92;6.00;;;;;;;;;;5053587;28;20205;-65
2021/12/07 01:51:32;;;;;;;62.97;5.78;;;;;;;;;;5051753;28;20709;-64
2021/12/07 01:59:35;;;;;;;61.15;5.30;;;;;;;;;;5053484;28;20235;-65
2021/12/07 02:02:05;;;;;;;62.30;5.38;;;;;;;;;;5053621;28;20259;-64
2021/12/07 02:04:32;;;;;;;61.33;5.68;;;;;;;;;;5053533;28;20214;-64
2021/12/07 02:07:00;;;;;;;62.22;5.20;;;;;;;;;;5053072;28;20215;-65
2021/12/07 02:09:27;;;;;;;61.00;5.35;;;;;;;;;;5053097;28;20317;-65
2021/12/07 02:11:59;;;;;;;60.60;4.82;;;;;;;;;;5053535;28;20202;-65
2021/12/07 02:14:26;;;;;;;61.05;5.13;;;;;;;;;;5053326;28;20225;-65
2021/12/07 02:16:54;;;;;;;59.20;4.57;;;;;;;;;;5053277;28;20205;-65
2021/12/07 02:19:23;;;;;;;60.50;4.90;;;;;;;;;;5053412;28;20252;-65
2021/12/07 02:21:52;;;;;;;59.38;4.30;;;;;;;;;;5053286;28;20209;-65
2021/12/07 02:24:19;;;;;;;61.35;5.10;;;;;;;;;;5061434;28;20573;-65
2021/12/07 02:26:48;;;;;;;63.60;4.80;;;;;;;;;;5073283;28;20315;-65
2021/12/07 02:29:15;;;;;;;59.53;4.80;;;;;;;;;;5072662;28;20228;-64
2021/12/07 02:31:43;;;;;;;61.08;5.63;;;;;;;;;;5072758;28;20223;-65
2021/12/07 02:34:12;;;;;;;61.13;5.20;;;;;;;;;;5072390;28;20301;-65
2021/12/07 02:36:39;;;;;;;64.47;5.20;;;;;;;;;;5072848;28;20213;-65
2021/12/07 02:39:08;;;;;;;60.92;5.00;;;;;;;;;;5072442;28;20225;-65
2021/12/07 02:41:35;;;;;;;61.35;5.13;;;;;;;;;;5072841;28;20599;-64
2021/12/07 02:44:05;;;;;;;61.25;5.07;;;;;;;;;;5069972;28;20291;-65
2021/12/07 02:46:32;;;;;;;62.30;5.45;;;;;;;;;;5073158;28;20224;-64
2021/12/07 02:48:59;;;;;;;61.33;4.80;;;;;;;;;;5072410;28;20228;-64
2021/12/07 02:51:26;;;;;;;60.80;4.88;;;;;;;;;;5072320;28;20638;-65
2021/12/07 02:53:54;;;;;;;61.92;5.85;;;;;;;;;;5072512;28;20209;-65
2021/12/07 02:56:23;;;;;;;59.40;4.28;;;;;;;;;;5058996;28;20221;-65
2021/12/07 02:58:55;;;;;;;62.15;5.10;;;;;;;;;;5052131;28;20252;-65
2021/12/07 03:01:27;;;;;;;61.90;4.90;;;;;;;;;;5052363;28;20267;-65
2021/12/07 03:04:01;;;;;;;60.17;5.15;;;;;;;;;;5052803;28;20210;-65
2021/12/07 03:06:37;;;;;;;60.75;4.80;;;;;;;;;;5052545;28;20205;-65
2021/12/07 03:28:35;;;;;;;60.33;4.35;;;;;;;;;;5039367;28;20296;-65
2021/12/07 03:31:02;;;;;;;58.53;4.20;;;;;;;;;;5051958;28;20579;-65
2021/12/07 03:33:30;;;;;;;59.83;4.50;;;;;;;;;;5052034;28;20211;-65
2021/12/07 03:35:57;;;;;;;60.72;4.70;;;;;;;;;;5051579;28;20602;-65
2021/12/07 03:38:24;;;;;;;60.13;5.25;;;;;;;;;;5051485;28;20259;-65
2021/12/07 03:40:51;;;;;;;60.20;4.63;;;;;;;;;;5051781;28;20205;-65
2021/12/07 03:43:18;;;;;;;60.95;4.70;;;;;;;;;;5052044;28;20205;-66
2021/12/07 03:45:47;;;;;;;61.63;5.00;;;;;;;;;;5051873;28;20578;-65
2021/12/07 03:48:15;;;;;;;59.20;4.20;;;;;;;;;;5051429;28;20245;-66
2021/12/07 03:50:42;;;;;;;59.95;4.32;;;;;;;;;;5051621;28;20209;-65
2021/12/07 03:53:10;;;;;;;60.22;4.70;;;;;;;;;;5051228;28;20208;-65
2021/12/07 03:55:37;;;;;;;60.33;4.10;;;;;;;;;;5051605;28;20535;-66
2021/12/07 03:58:04;;;;;;;60.97;4.70;;;;;;;;;;5051520;28;20202;-65
2021/12/07 04:00:33;;;;;;;60.58;5.00;;;;;;;;;;5063604;28;20661;-65
2021/12/07 04:03:07;;;;;;;59.90;4.40;;;;;;;;;;5071163;28;20228;-65
2021/12/07 04:05:34;;;;;;;60.63;4.80;;;;;;;;;;5071471;28;20204;-65
2021/12/07 04:08:01;;;;;;;58.95;3.70;;;;;;;;;;5071399;28;20644;-65
2021/12/07 04:10:28;;;;;;;60.13;4.18;;;;;;;;;;5071481;28;20229;-65
2021/12/07 04:12:55;;;;;;;59.25;3.90;;;;;;;;;;5071362;28;20748;-65
2021/12/07 04:15:22;;;;;;;59.67;3.88;;;;;;;;;;5071180;28;20223;-65
2021/12/07 04:17:50;;;;;;;59.95;4.30;;;;;;;;;;5071037;28;20295;-64
2021/12/07 04:20:19;;;;;;;58.75;3.75;;;;;;;;;;5071659;28;20224;-65
2021/12/07 04:22:46;;;;;;;58.97;4.45;;;;;;;;;;5071479;28;20201;-65
2021/12/07 04:25:14;;;;;;;61.67;4.68;;;;;;;;;;5071421;28;20211;-65
2021/12/07 04:27:41;;;;;;;59.83;4.38;;;;;;;;;;5071264;28;20232;-65
2021/12/07 04:30:11;;;;;;;60.20;4.28;;;;;;;;;;5070989;28;20231;-65
2021/12/07 04:32:38;;;;;;;59.95;4.45;;;;;;;;;;5054066;28;20215;-64
2021/12/07 04:35:06;;;;;;;60.80;4.80;;;;;;;;;;5051224;28;20304;-65
2021/12/07 04:37:34;;;;;;;60.88;5.00;;;;;;;;;;5051250;28;20227;-65
2021/12/07 04:40:02;;;;;;;58.42;4.53;;;;;;;;;;5051183;28;20312;-65
2021/12/07 04:42:29;;;;;;;61.60;4.18;;;;;;;;;;5051248;28;20589;-65
2021/12/07 04:45:00;;;;;;;59.97;4.07;;;;;;;;;;5051026;28;20738;-64
2021/12/07 04:47:36;;;;;;;59.15;4.47;;;;;;;;;;5051179;28;20214;-65
2021/12/07 04:50:31;;;;;;;60.20;4.00;;;;;;;;;;5051159;28;20692;-65
2021/12/07 04:58:29;;;;;;;60.13;4.38;;;;;;;;;;5051175;28;20197;-64
2021/12/07 05:00:56;;;;;;;60.25;4.35;;;;;;;;;;5051189;28;20205;-65
2021/12/07 05:03:26;;;;;;;60.33;4.05;;;;;;;;;;5060109;28;20609;-65
2021/12/07 05:05:54;;;;;;;60.40;4.90;;;;;;;;;;5070944;28;20561;-67
2021/12/07 05:08:34;;;;;;;60.45;4.30;;;;;;;;;;5070801;28;20292;-65
2021/12/07 05:13:53;;;;;;;60.42;4.70;;;;;;;;;;5061577;28;20208;-66
2021/12/07 05:23:52;;;;;;;61.00;4.03;;;;;;;;;;5066829;28;20224;-65
2021/12/07 05:24:52;;;;;;;59.22;4.40;;;;;;;;;;5074146;28;20199;-65
2021/12/07 05:38:20;;;;;;;60.85;4.47;;;;;;;;;;5035817;28;20584;-65
2021/12/07 05:40:49;;;;;;;60.38;4.40;;;;;;;;;;5054088;28;20674;-65
2021/12/07 05:43:16;;;;;;;59.75;4.10;;;;;;;;;;5053787;28;20212;-65
2021/12/07 05:45:43;;;;;;;60.25;4.88;;;;;;;;;;5054161;28;20292;-65
2021/12/07 05:48:11;;;;;;;59.00;3.92;;;;;;;;;;5053754;28;20212;-64
2021/12/07 05:50:39;;;;;;;63.17;5.20;;;;;;;;;;5053723;28;20226;-64
2021/12/07 05:53:07;;;;;;;68.43;5.30;;;;;;;;;;5053579;28;20216;-64
2021/12/07 05:55:34;;;;;;;62.92;5.13;;;;;;;;;;5053443;28;20226;-65
2021/12/07 05:58:03;;;;;;;65.93;6.63;;;;;;;;;;5053225;28;20212;-65
2021/12/07 06:00:31;;;;;;;63.78;5.82;;;;;;;;;;5053792;28;20677;-65
2021/12/07 06:02:59;;;;;;;63.60;6.57;;;;;;;;;;5053655;28;20201;-65
2021/12/07 06:05:27;;;;;;;63.72;6.63;;;;;;;;;;5052268;28;20212;-65
2021/12/07 06:07:54;;;;;;;59.88;4.13;;;;;;;;;;5053254;28;20201;-65
2021/12/07 06:10:22;;;;;;;63.42;3.90;;;;;;;;;;5053123;28;20226;-65
2021/12/07 06:12:49;;;;;;;59.47;3.65;;;;;;;;;;5053743;28;20201;-65
2021/12/07 06:15:20;;;;;;;58.75;3.90;;;;;;;;;;5052927;28;20226;-64
2021/12/07 06:17:48;;;;;;;58.83;3.88;;;;;;;;;;5053069;28;20300;-64
2021/12/07 06:20:15;;;;;;;59.15;3.75;;;;;;;;;;5053204;28;20241;-65
2021/12/07 06:22:42;;;;;;;62.15;4.30;;;;;;;;;;5053107;28;20206;-65
2021/12/07 06:25:10;;;;;;;69.97;4.68;;;;;;;;;;5052206;28;20577;-65
2021/12/07 06:27:38;;;;;;;61.58;4.90;;;;;;;;;;5051849;28;20584;-65
2021/12/07 06:30:06;;;;;;;59.45;4.15;;;;;;;;;;5052589;28;20316;-65
2021/12/07 06:32:34;;;;;;;65.93;4.45;;;;;;;;;;5052578;28;20599;-64
2021/12/07 06:35:01;;;;;;;61.78;4.32;;;;;;;;;;5051752;28;20216;-65
2021/12/07 06:37:29;;;;;;;60.05;4.43;;;;;;;;;;5050884;28;20209;-66
2021/12/07 06:39:56;;;;;;;63.53;5.53;;;;;;;;;;5052832;28;20231;-66
2021/12/07 06:42:23;;;;;;;61.65;5.50;;;;;;;;;;5053050;28;20235;-66
2021/12/07 06:44:51;;;;;;;59.05;4.35;;;;;;;;;;5052636;28;20212;-66
2021/12/07 06:47:18;;;;;;;61.92;5.63;;;;;;;;;;5052525;28;20297;-65
2021/12/07 06:49:48;;;;;;;80.88;13.25;;;;;;;;;;5052609;28;20312;-65
2021/12/07 06:52:15;;;;;;;71.93;6.60;;;;;;;;;;5052516;28;20547;-65
2021/12/07 06:54:42;;;;;;;60.65;4.45;;;;;;;;;;5052615;28;20403;-65
2021/12/07 06:57:10;;;;;;;66.45;5.90;;;;;;;;;;5052386;28;20221;-63
2021/12/07 06:59:37;;;;;;;65.55;6.00;;;;;;;;;;5052478;28;20236;-65
2021/12/07 07:02:04;;;;;;;62.60;5.70;;;;;;;;;;5052678;28;20214;-65
2021/12/07 07:04:31;;;;;;;65.35;6.00;;;;;;;;;;5052158;28;20670;-66
2021/12/07 07:07:00;;;;;;;59.97;4.80;;;;;;;;;;5052537;28;20201;-66
2021/12/07 07:09:27;;;;;;;63.35;5.38;;;;;;;;;;5060470;28;20311;-66
2021/12/07 07:11:54;;;;;;;69.90;6.93;;;;;;;;;;5072363;28;20204;-65
2021/12/07 07:14:21;;;;;;;63.55;4.68;;;;;;;;;;5071830;28;20690;-65
2021/12/07 07:16:48;;;;;;;59.72;4.30;;;;;;;;;;5072220;28;20789;-64
2021/12/07 07:19:15;;;;;;;60.80;4.30;;;;;;;;;;5071437;28;20267;-65
2021/12/07 07:21:42;;;;;;;59.92;3.97;;;;;;;;;;5072283;28;20207;-64
2021/12/07 07:24:11;;;;;;;60.30;3.63;;;;;;;;;;5072215;28;20296;-65
2021/12/07 07:26:38;;;;;;;63.03;5.60;;;;;;;;;;5071998;28;20292;-65
2021/12/07 07:29:06;;;;;;;63.03;3.78;;;;;;;;;;5071770;28;20228;-65
2021/12/07 07:31:36;;;;;;;60.78;4.10;;;;;;;;;;5071705;28;20248;-65
2021/12/07 07:34:03;;;;;;;60.38;3.80;;;;;;;;;;5072005;28;20254;-64
2021/12/07 07:36:30;;;;;;;65.10;4.60;;;;;;;;;;5070974;28;20236;-65
2021/12/07 07:38:57;;;;;;;69.90;5.03;;;;;;;;;;5071237;28;20604;-65
2021/12/07 07:41:26;;;;;;;62.20;3.60;;;;;;;;;;5062683;28;20216;-65
2021/12/07 07:43:53;;;;;;;60.95;3.80;;;;;;;;;;5051910;28;20206;-65
2021/12/07 07:46:20;;;;;;;66.97;4.85;;;;;;;;;;5051548;28;20695;-65
2021/12/07 07:48:48;;;;;;;59.33;4.13;;;;;;;;;;5051370;28;20222;-64
2021/12/07 07:51:15;;;;;;;73.45;4.60;;;;;;;;;;5051846;28;20209;-65
2021/12/07 07:53:42;;;;;;;61.25;4.32;;;;;;;;;;5051729;28;20205;-65
2021/12/07 07:56:09;;;;;;;62.60;4.80;;;;;;;;;;5051400;28;20668;-65
2021/12/07 07:58:38;;;;;;;60.53;4.18;;;;;;;;;;5050962;28;20717;-65
2021/12/07 08:01:06;;;;;;;59.03;3.90;;;;;;;;;;5051856;28;20240;-65
2021/12/07 08:03:35;;;;;;;60.60;4.28;;;;;;;;;;5051717;28;20213;-65
2021/12/07 08:06:02;;;;;;;59.60;4.15;;;;;;;;;;5051533;28;20205;-65
2021/12/07 08:08:29;;;;;;;59.58;4.00;;;;;;;;;;5051544;28;20208;-65
2021/12/07 08:10:56;;;;;;;59.35;4.18;;;;;;;;;;5051610;28;20206;-65
2021/12/07 08:13:24;;;;;;;62.92;4.93;;;;;;;;;;5050234;28;20214;-65
2021/12/07 08:15:52;;;;;;;61.67;4.35;;;;;;;;;;5051204;28;20232;-65
2021/12/07 08:18:19;;;;;;;59.63;4.25;;;;;;;;;;5050960;28;20296;-65
2021/12/07 08:20:47;;;;;;;62.55;4.82;;;;;;;;;;5051372;28;20227;-65
2021/12/07 08:23:14;;;;;;;63.40;5.05;;;;;;;;;;5051435;28;20304;-65
2021/12/07 08:25:43;;;;;;;60.05;4.70;;;;;;;;;;5051098;28;20202;-65
2021/12/07 08:28:13;;;;;;;64.15;5.30;;;;;;;;;;5051293;28;20209;-65
2021/12/07 08:30:41;;;;;;;62.70;5.30;;;;;;;;;;5051495;28;20272;-65
2021/12/07 08:33:10;;;;;;;62.35;4.55;;;;;;;;;;5051129;28;20221;-64
2021/12/07 08:35:38;;;;;;;61.17;4.72;;;;;;;;;;5050839;28;20723;-64
2021/12/07 08:38:05;;;;;;;60.42;4.28;;;;;;;;;;5050816;28;20304;-65
2021/12/07 08:40:33;;;;;;;63.28;4.20;;;;;;;;;;5051187;28;20256;-64
2021/12/07 08:43:01;;;;;;;65.75;3.90;;;;;;;;;;5051176;28;20563;-64
2021/12/07 08:45:28;;;;;;;63.33;3.97;;;;;;;;;;5049940;28;20206;-65
2021/12/07 08:47:55;;;;;;;60.03;4.03;;;;;;;;;;5051028;28;20251;-64
2021/12/07 08:50:26;;;;;;;62.95;4.00;;;;;;;;;;5054956;28;20229;-64
2021/12/07 08:52:53;;;;;;;63.45;4.00;;;;;;;;;;5055231;28;20295;-64
2021/12/07 09:00:56;;;;;;;62.10;4.18;;;;;;;;;;5015987;28;20203;-64
2021/12/07 09:03:23;;;;;;;63.63;4.55;;;;;;;;;;5054707;28;20212;-64
2021/12/07 09:05:52;;;;;;;61.75;4.03;;;;;;;;;;5054696;28;20208;-64
2021/12/07 09:08:19;;;;;;;65.35;4.38;;;;;;;;;;5054327;28;20297;-64
2021/12/07 09:10:46;;;;;;;63.25;3.80;;;;;;;;;;5054736;28;20211;-64
2021/12/07 09:13:13;;;;;;;59.35;3.30;;;;;;;;;;5054573;28;20206;-64
2021/12/07 09:15:40;;;;;;;60.55;3.50;;;;;;;;;;5053864;28;20296;-65
2021/12/07 09:18:07;;;;;;;62.20;3.83;;;;;;;;;;5074116;28;20780;-65
2021/12/07 09:20:35;;;;;;;60.80;3.53;;;;;;;;;;5074060;28;20235;-64
2021/12/07 09:23:04;;;;;;;60.53;2.90;;;;;;;;;;5074596;28;20205;-64
2021/12/07 09:25:31;;;;;;;64.97;3.35;;;;;;;;;;5074356;28;20207;-65
2021/12/07 09:27:58;;;;;;;63.25;3.72;;;;;;;;;;5073814;28;20197;-64
2021/12/07 09:30:25;;;;;;;60.90;4.25;;;;;;;;;;5074085;28;20221;-65
2021/12/07 09:32:53;;;;;;;61.20;3.65;;;;;;;;;;5074425;28;20208;-64
2021/12/07 09:35:21;;;;;;;60.25;3.55;;;;;;;;;;5074171;28;20590;-64
2021/12/07 09:37:49;;;;;;;63.00;3.40;;;;;;;;;;5073324;28;20701;-64
2021/12/07 09:40:18;;;;;;;59.55;3.20;;;;;;;;;;5073742;28;20764;-65
2021/12/07 09:42:45;;;;;;;62.85;3.25;;;;;;;;;;5073889;28;20230;-65
2021/12/07 09:45:14;;;;;;;59.22;3.25;;;;;;;;;;5074187;28;20580;-64
2021/12/07 09:47:41;;;;;;;62.33;4.03;;;;;;;;;;5071722;28;20284;-65
2021/12/07 09:50:10;;;;;;;59.65;3.20;;;;;;;;;;5073846;28;20740;-64
2021/12/07 09:52:37;;;;;;;60.30;3.22;;;;;;;;;;5073933;28;20205;-64
2021/12/07 09:55:05;;;;;;;59.42;2.80;;;;;;;;;;5073625;28;20299;-64
2021/12/07 09:57:34;;;;;;;59.38;3.17;;;;;;;;;;5072967;28;20221;-64
2021/12/07 10:00:01;;;;;;;63.60;3.78;;;;;;;;;;5072476;28;20317;-65
2021/12/07 10:02:28;;;;;;;59.38;3.40;;;;;;;;;;5073849;28;20292;-65
2021/12/07 10:04:55;;;;;;;66.73;3.40;;;;;;;;;;5073507;28;20202;-64
2021/12/07 10:07:22;;;;;;;58.73;3.10;;;;;;;;;;5073344;28;20441;-65
2021/12/07 10:09:50;;;;;;;62.60;3.93;;;;;;;;;;5073327;28;20474;-64
2021/12/07 10:12:18;;;;;;;59.93;2.83;;;;;;;;;;5073779;28;20541;-64
2021/12/07 10:14:47;;;;;;;62.47;3.73;;;;;;;;;;5073404;28;20445;-64
2021/12/07 10:17:14;;;;;;;58.70;3.33;;;;;;;;;;5072656;28;21016;-64
2021/12/07 10:19:45;;;;;;;59.37;3.30;;;;;;;;;;5071250;28;20469;-64
2021/12/07 10:22:15;;;;;;;60.73;3.37;;;;;;;;;;5073171;28;20939;-64
2021/12/07 10:24:48;;;;;;;72.93;3.63;;;;;;;;;;5073136;28;20497;-65
2021/12/07 10:27:32;;;;;;;59.07;3.00;;;;;;;;;;5072794;28;20962;-64
2021/12/07 10:30:00;;;;;;;63.20;3.03;;;;;;;;;;5072979;28;21051;-64
2021/12/07 10:32:27;;;;;;;62.73;4.00;;;;;;;;;;5073095;28;20445;-64
2021/12/07 10:34:54;;;;;;;60.78;3.15;;;;;;;;;;5072645;28;20454;-64
2021/12/07 10:37:22;;;;;;;58.60;3.10;;;;;;;;;;5072277;28;20256;-64
2021/12/07 10:39:51;;;;;;;59.85;3.15;;;;;;;;;;5072925;28;20228;-64
2021/12/07 10:42:20;;;;;;;58.40;2.90;;;;;;;;;;5073182;28;20209;-64
2021/12/07 10:44:47;;;;;;;60.10;3.05;;;;;;;;;;5072737;28;20208;-64
2021/12/07 10:47:16;;;;;;;66.82;3.75;;;;;;;;;;5072423;28;20593;-64
2021/12/07 10:49:46;;;;;;;60.35;3.28;;;;;;;;;;5072358;28;20233;-64
2021/12/07 10:52:18;;;;;;;58.58;2.95;;;;;;;;;;5070168;28;20207;-64
2021/12/07 10:54:47;;;;;;;61.27;3.10;;;;;;;;;;5072519;28;20297;-64
2021/12/07 10:57:16;;;;;;;59.70;2.90;;;;;;;;;;5071921;28;20483;-64
2021/12/07 10:59:53;;;;;;;63.43;3.60;;;;;;;;;;5072282;28;20471;-64
2021/12/07 11:02:22;;;;;;;60.67;3.60;;;;;;;;;;5072439;28;20446;-64
2021/12/07 11:04:50;;;;;;;60.60;3.60;;;;;;;;;;5072571;28;20450;-65
2021/12/07 11:07:18;;;;;;;59.10;3.00;;;;;;;;;;5071971;28;20448;-64
2021/12/07 11:09:48;;;;;;;58.77;2.93;;;;;;;;;;5072650;28;20559;-63
2021/12/07 11:12:16;;;;;;;61.10;3.80;;;;;;;;;;5072203;28;20483;-64
2021/12/07 11:14:49;;;;;;;62.90;4.03;;;;;;;;;;5071843;28;20445;-64
2021/12/07 11:17:16;;;;;;;60.20;3.00;;;;;;;;;;5071499;28;20538;-64
2021/12/07 11:19:45;;;;;;;60.23;3.17;;;;;;;;;;5070897;28;20500;-63
2021/12/07 11:22:16;;;;;;;59.57;3.03;;;;;;;;;;5063662;28;20890;-64
2021/12/07 11:24:44;;;;;;;59.20;2.80;;;;;;;;;;5048377;28;20877;-64
2021/12/07 11:30:01;;;;;;;59.50;3.10;;;;;;;;;;5051647;28;20932;-64
2021/12/07 11:32:29;;;;;;;59.73;3.10;;;;;;;;;;5051290;28;20481;-64
2021/12/07 11:35:07;;;;;;;60.37;3.13;;;;;;;;;;5051174;28;20455;-62
2021/12/07 11:37:36;;;;;;;60.27;3.00;;;;;;;;;;5049938;28;20530;-64
2021/12/07 11:40:06;;;;;;;58.90;3.13;;;;;;;;;;5062248;28;20473;-64
2021/12/07 11:42:37;;;;;;;59.57;3.07;;;;;;;;;;5071763;28;20449;-64
2021/12/07 11:45:06;;;;;;;60.27;3.00;;;;;;;;;;5071671;28;20452;-64
2021/12/07 11:47:35;;;;;;;61.07;3.20;;;;;;;;;;5071428;28;20452;-64
2021/12/07 11:50:13;;;;;;;60.37;3.00;;;;;;;;;;5071031;28;21020;-64
2021/12/07 11:52:40;;;;;;;59.80;3.30;;;;;;;;;;5071103;28;20455;-64
2021/12/07 11:55:08;;;;;;;60.60;3.10;;;;;;;;;;5071104;28;20944;-64
2021/12/07 11:57:36;;;;;;;58.27;2.83;;;;;;;;;;5070718;28;20484;-64
2021/12/07 12:00:03;;;;;;;62.67;3.00;;;;;;;;;;5070822;28;20548;-64
2021/12/07 12:02:30;;;;;;;60.57;3.00;;;;;;;;;;5071188;28;21013;-64
2021/12/07 12:04:57;;;;;;;58.57;2.67;;;;;;;;;;5071463;28;20540;-64
2021/12/07 12:07:26;;;;;;;58.60;2.83;;;;;;;;;;5071264;28;20453;-65
2021/12/07 12:09:54;;;;;;;58.30;2.67;;;;;;;;;;5071638;28;20501;-64
2021/12/07 12:12:25;;;;;;;60.10;2.83;;;;;;;;;;5070185;28;20868;-64
2021/12/07 12:14:59;;;;;;;59.77;2.67;;;;;;;;;;5070455;28;20453;-64
2021/12/07 12:17:35;;;;;;;59.57;3.00;;;;;;;;;;5068022;28;21063;-64
2021/12/07 12:20:18;;;;;;;61.23;3.20;;;;;;;;;;5070648;28;20468;-64
2021/12/07 12:22:51;;;;;;;58.80;2.87;;;;;;;;;;5071271;28;20444;-64
2021/12/07 12:25:21;;;;;;;61.87;3.07;;;;;;;;;;5075310;28;20461;-64
2021/12/07 12:27:49;;;;;;;60.00;2.90;;;;;;;;;;5075149;28;20457;-64
2021/12/07 12:30:19;;;;;;;59.27;3.30;;;;;;;;;;5075541;28;20474;-64
2021/12/07 12:32:47;;;;;;;58.87;3.13;;;;;;;;;;5075404;28;20452;-64
2021/12/07 12:35:15;;;;;;;58.80;2.83;;;;;;;;;;5075313;28;20448;-64
2021/12/07 12:37:47;;;;;;;60.30;3.47;;;;;;;;;;5074611;28;20492;-64
2021/12/07 12:40:21;;;;;;;64.30;3.30;;;;;;;;;;5075167;28;20463;-64
2021/12/07 12:42:50;;;;;;;58.67;3.30;;;;;;;;;;5075229;28;20447;-65
2021/12/07 12:45:20;;;;;;;60.20;3.20;;;;;;;;;;5074920;28;20451;-64
2021/12/07 12:47:54;;;;;;;59.70;2.93;;;;;;;;;;5074912;28;20549;-64
2021/12/07 12:50:22;;;;;;;62.10;3.30;;;;;;;;;;5057995;28;20474;-64
2021/12/07 12:52:50;;;;;;;62.10;3.23;;;;;;;;;;5055085;28;20456;-64
2021/12/07 12:55:30;;;;;;;61.03;3.27;;;;;;;;;;5055088;28;20480;-64
2021/12/07 12:57:57;;;;;;;60.47;3.30;;;;;;;;;;5054077;28;20752;-64
2021/12/07 13:00:25;;;;;;;64.47;3.20;;;;;;;;;;5054570;28;20562;-64
2021/12/07 13:02:52;;;;;;;62.17;3.17;;;;;;;;;;5054615;28;20530;-64
2021/12/07 13:05:33;;;;;;;59.67;3.23;;;;;;;;;;5054738;28;20458;-63
2021/12/07 13:08:13;;;;;;;59.37;3.10;;;;;;;;;;5054465;28;20450;-62
2021/12/07 13:10:55;;;;;;;60.80;3.83;;;;;;;;;;5054620;28;20466;-62
2021/12/07 13:13:30;;;;;;;62.07;3.43;;;;;;;;;;5054582;28;20455;-63
2021/12/07 13:15:57;;;;;;;59.97;3.27;;;;;;;;;;5054550;28;20451;-63
2021/12/07 13:18:31;;;;;;;59.90;2.93;;;;;;;;;;5053662;28;21039;-63
2021/12/07 13:20:58;;;;;;;59.50;3.20;;;;;;;;;;5054304;28;20482;-63
2021/12/07 13:23:29;;;;;;;60.93;3.57;;;;;;;;;;5054545;28;20829;-64
2021/12/07 13:25:56;;;;;;;60.20;3.20;;;;;;;;;;5054650;28;20453;-63
2021/12/07 13:28:25;;;;;;;60.27;4.03;;;;;;;;;;5054192;28;20524;-63
2021/12/07 13:31:05;;;;;;;59.70;2.83;;;;;;;;;;5054296;28;20450;-63
2021/12/07 13:33:37;;;;;;;59.60;3.57;;;;;;;;;;5054329;28;20448;-64
2021/12/07 13:36:29;;;;;;;59.20;3.23;;;;;;;;;;5052829;28;21072;-64
2021/12/07 13:39:00;;;;;;;63.00;3.90;;;;;;;;;;5053325;28;21025;-63
2021/12/07 13:41:27;;;;;;;59.97;3.00;;;;;;;;;;5054071;28;20537;-63
2021/12/07 13:43:56;;;;;;;60.73;3.80;;;;;;;;;;5054325;28;20451;-64
2021/12/07 13:46:25;;;;;;;61.30;3.00;;;;;;;;;;5054094;28;20455;-63
2021/12/07 13:48:53;;;;;;;59.70;3.00;;;;;;;;;;5053693;28;20478;-64
2021/12/07 13:51:21;;;;;;;61.53;3.00;;;;;;;;;;5054148;28;20454;-63
2021/12/07 13:53:49;;;;;;;59.00;3.20;;;;;;;;;;5053914;28;20456;-63
2021/12/07 13:56:16;;;;;;;59.00;3.07;;;;;;;;;;5053529;28;20448;-63
2021/12/07 13:58:51;;;;;;;58.90;3.17;;;;;;;;;;5053000;28;20498;-64
2021/12/07 14:01:18;;;;;;;59.87;3.10;;;;;;;;;;5053534;28;20537;-64
2021/12/07 14:03:47;;;;;;;59.50;3.80;;;;;;;;;;5053689;28;20453;-64
2021/12/07 14:06:14;;;;;;;65.50;3.10;;;;;;;;;;5053851;28;20445;-64
2021/12/07 14:08:41;;;;;;;58.67;2.87;;;;;;;;;;5053363;28;20460;-63
2021/12/07 14:11:08;;;;;;;60.00;3.10;;;;;;;;;;5053535;28;20452;-64
2021/12/07 14:13:40;;;;;;;58.87;2.97;;;;;;;;;;5053465;28;20458;-63
2021/12/07 14:16:08;;;;;;;58.77;2.90;;;;;;;;;;5053708;28;20464;-64
2021/12/07 14:18:35;;;;;;;58.40;2.60;;;;;;;;;;5052752;28;20487;-64
2021/12/07 14:21:04;;;;;;;60.20;3.47;;;;;;;;;;5053258;28;20448;-64
2021/12/07 14:23:32;;;;;;;58.77;3.53;;;;;;;;;;5053447;28;20490;-63
2021/12/07 14:26:01;;;;;;;62.67;4.10;;;;;;;;;;5053148;28;20451;-64
2021/12/07 14:28:29;;;;;;;59.80;3.93;;;;;;;;;;5052871;28;20440;-64
2021/12/07 14:31:04;;;;;;;61.57;3.20;;;;;;;;;;5053280;28;20863;-63
2021/12/07 14:33:31;;;;;;;59.80;3.20;;;;;;;;;;5053295;28;20482;-63
2021/12/07 14:35:59;;;;;;;59.90;3.30;;;;;;;;;;5053004;28;20533;-64
2021/12/07 14:38:32;;;;;;;61.10;3.30;;;;;;;;;;5052211;28;20481;-63
2021/12/07 14:41:01;;;;;;;62.40;3.53;;;;;;;;;;5052759;28;20446;-63
2021/12/07 14:43:28;;;;;;;60.40;3.20;;;;;;;;;;5053276;28;20580;-63
2021/12/07 14:45:59;;;;;;;60.93;3.17;;;;;;;;;;5052705;28;20456;-64
2021/12/07 14:48:26;;;;;;;59.13;3.07;;;;;;;;;;5052662;28;20443;-64
2021/12/07 14:50:53;;;;;;;61.67;3.80;;;;;;;;;;5053047;28;20448;-64
2021/12/07 14:53:33;;;;;;;62.80;3.37;;;;;;;;;;5052860;28;20551;-64
2021/12/07 14:56:00;;;;;;;61.17;3.50;;;;;;;;;;5052718;28;20994;-64
2021/12/07 14:58:31;;;;;;;63.77;3.30;;;;;;;;;;5051870;28;20572;-63
2021/12/07 15:00:58;;;;;;;59.67;3.43;;;;;;;;;;5052637;28;20532;-64
2021/12/07 15:03:34;;;;;;;59.97;3.07;;;;;;;;;;5052580;28;20480;-63
2021/12/07 15:06:01;;;;;;;59.70;3.17;;;;;;;;;;5052513;28;20454;-64
2021/12/07 15:08:28;;;;;;;58.88;3.40;;;;;;;;;;5052458;28;20449;-64
2021/12/07 15:10:58;;;;;;;62.83;3.73;;;;;;;;;;5052568;28;20209;-64
2021/12/07 15:13:26;;;;;;;59.97;3.35;;;;;;;;;;5052628;28;20482;-63
2021/12/07 15:15:54;;;;;;;60.97;3.45;;;;;;;;;;5052430;28;20293;-64
2021/12/07 15:18:26;;;;;;;59.00;3.20;;;;;;;;;;5051782;28;20313;-65
2021/12/07 15:20:53;;;;;;;60.30;3.55;;;;;;;;;;5052208;28;20536;-64
2021/12/07 15:23:21;;;;;;;60.55;3.30;;;;;;;;;;5052608;28;20208;-64
2021/12/07 15:25:50;;;;;;;60.15;3.55;;;;;;;;;;5052184;28;20758;-64
2021/12/07 15:28:19;;;;;;;62.70;3.40;;;;;;;;;;5052096;28;20200;-64
2021/12/07 15:30:46;;;;;;;59.80;3.20;;;;;;;;;;5052184;28;20222;-64
2021/12/07 15:33:13;;;;;;;59.90;3.22;;;;;;;;;;5052340;28;20558;-64
2021/12/07 15:35:43;;;;;;;69.85;6.45;;;;;;;;;;5052308;28;20213;-63
2021/12/07 15:38:13;;;;;;;69.47;7.82;;;;;;;;;;5051546;28;20239;-63
2021/12/07 15:40:40;;;;;;;66.05;5.82;;;;;;;;;;5051497;28;20737;-64
2021/12/07 15:43:07;;;;;;;66.90;4.85;;;;;;;;;;5051787;28;20202;-64
2021/12/07 15:45:38;;;;;;;65.35;5.47;;;;;;;;;;5051822;28;20210;-64
2021/12/07 15:48:05;;;;;;;68.15;6.00;;;;;;;;;;5051677;28;20256;-64
2021/12/07 15:50:34;;;;;;;78.80;11.63;;;;;;;;;;5052011;28;20221;-64
2021/12/07 15:53:05;;;;;;;71.55;8.65;;;;;;;;;;5051912;28;20213;-64
2021/12/07 15:55:33;;;;;;;83.97;12.00;;;;;;;;;;5051864;28;20296;-64
2021/12/07 15:58:03;;;;;;;74.13;10.55;;;;;;;;;;5050639;28;20670;-64
2021/12/07 16:00:31;;;;;;;70.68;10.20;;;;;;;;;;5051214;28;20233;-63
2021/12/07 16:03:01;;;;;;;72.72;9.35;;;;;;;;;;5051672;28;20231;-63